sensor_id;sensor_type;location;lat;lon;timestamp;temperature;humidity
29729;DHT22;20055;51.498;11.960;2022-08-21T00:01:37;19.00;99.90
29729;DHT22;20055;51.498;11.960;2022-08-21T00:04:06;19.10;99.90
29729;DHT22;20055;51.498;11.960;2022-08-21T00:06:33;19.10;99.90
29729;DHT22;20055;51.498;11.960;2022-08-21T00:09:01;19.10;99.90
29729;DHT22;20055;51.498;11.960;2022-08-21T00:11:27;19.10;99.90
29729;DHT22;20055;51.498;11.960;2022-08-21T00:13:54;19.00;99.90
29729;DHT22;20055;51.498;11.960;2022-08-21T00:16:21;19.00;99.90
29729;DHT22;20055;51.498;11.960;2022-08-21T00:18:47;19.00;99.90
29729;DHT22;20055;51.498;11.960;2022-08-21T00:21:14;19.00;99.90
29729;DHT22;20055;51.498;11.960;2022-08-21T00:23:41;18.90;99.90
29729;DHT22;20055;51.498;11.960;2022-08-21T00:26:08;19.00;99.90
29729;DHT22;20055;51.498;11.960;2022-08-21T00:28:34;18.90;99.90
29729;DHT22;20055;51.498;11.960;2022-08-21T00:31:01;18.90;99.90
29729;DHT22;20055;51.498;11.960;2022-08-21T00:33:30;18.80;99.90
29729;DHT22;20055;51.498;11.960;2022-08-21T00:35:57;18.50;99.90
29729;DHT22;20055;51.498;11.960;2022-08-21T00:38:23;18.60;99.90
29729;DHT22;20055;51.498;11.960;2022-08-21T00:40:54;18.50;99.90
29729;DHT22;20055;51.498;11.960;2022-08-21T00:43:24;18.50;99.90
29729;DHT22;20055;51.498;11.960;2022-08-21T00:45:51;18.50;99.90
29729;DHT22;20055;51.498;11.960;2022-08-21T00:48:19;18.50;99.90
29729;DHT22;20055;51.498;11.960;2022-08-21T00:50:57;18.40;99.90
29729;DHT22;20055;51.498;11.960;2022-08-21T00:53:25;18.40;99.90
29729;DHT22;20055;51.498;11.960;2022-08-21T00:55:53;18.40;99.90
29729;DHT22;20055;51.498;11.960;2022-08-21T00:58:20;18.30;99.90
29729;DHT22;20055;51.498;11.960;2022-08-21T01:00:50;18.30;99.90
29729;DHT22;20055;51.498;11.960;2022-08-21T01:03:21;18.40;99.90
29729;DHT22;20055;51.498;11.960;2022-08-21T01:05:48;18.40;99.90
29729;DHT22;20055;51.498;11.960;2022-08-21T01:08:17;18.40;99.90
29729;DHT22;20055;51.498;11.960;2022-08-21T01:10:44;18.40;99.90
29729;DHT22;20055;51.498;11.960;2022-08-21T01:13:12;18.40;99.90
29729;DHT22;20055;51.498;11.960;2022-08-21T01:15:43;18.50;99.90
29729;DHT22;20055;51.498;11.960;2022-08-21T01:18:11;18.50;99.90
29729;DHT22;20055;51.498;11.960;2022-08-21T01:20:40;18.50;99.90
29729;DHT22;20055;51.498;11.960;2022-08-21T01:23:07;18.60;99.90
29729;DHT22;20055;51.498;11.960;2022-08-21T01:25:34;18.50;99.90
29729;DHT22;20055;51.498;11.960;2022-08-21T01:28:07;18.60;99.90
29729;DHT22;20055;51.498;11.960;2022-08-21T01:30:36;18.60;99.90
29729;DHT22;20055;51.498;11.960;2022-08-21T01:33:04;18.40;99.90
29729;DHT22;20055;51.498;11.960;2022-08-21T01:35:30;18.40;99.90
29729;DHT22;20055;51.498;11.960;2022-08-21T01:37:57;18.40;99.90
29729;DHT22;20055;51.498;11.960;2022-08-21T01:40:23;18.40;99.90
29729;DHT22;20055;51.498;11.960;2022-08-21T01:42:49;18.40;99.90
29729;DHT22;20055;51.498;11.960;2022-08-21T01:45:16;18.40;99.90
29729;DHT22;20055;51.498;11.960;2022-08-21T01:47:44;18.40;99.90
29729;DHT22;20055;51.498;11.960;2022-08-21T01:50:13;18.30;99.90
29729;DHT22;20055;51.498;11.960;2022-08-21T01:52:40;18.30;99.90
29729;DHT22;20055;51.498;11.960;2022-08-21T01:55:09;18.30;99.90
29729;DHT22;20055;51.498;11.960;2022-08-21T01:57:36;18.30;99.90
29729;DHT22;20055;51.498;11.960;2022-08-21T02:00:06;18.30;99.90
29729;DHT22;20055;51.498;11.960;2022-08-21T02:02:39;18.20;99.90
29729;DHT22;20055;51.498;11.960;2022-08-21T02:05:08;18.20;99.90
29729;DHT22;20055;51.498;11.960;2022-08-21T02:07:41;18.20;99.90
29729;DHT22;20055;51.498;11.960;2022-08-21T02:10:09;18.20;99.90
29729;DHT22;20055;51.498;11.960;2022-08-21T02:12:36;18.20;99.90
29729;DHT22;20055;51.498;11.960;2022-08-21T02:15:04;18.10;99.90
29729;DHT22;20055;51.498;11.960;2022-08-21T02:17:46;18.10;99.90
29729;DHT22;20055;51.498;11.960;2022-08-21T02:20:17;18.10;99.90
29729;DHT22;20055;51.498;11.960;2022-08-21T02:22:44;18.10;99.90
29729;DHT22;20055;51.498;11.960;2022-08-21T02:25:11;18.10;99.90
29729;DHT22;20055;51.498;11.960;2022-08-21T02:27:40;18.10;99.90
29729;DHT22;20055;51.498;11.960;2022-08-21T02:30:07;18.10;99.90
29729;DHT22;20055;51.498;11.960;2022-08-21T02:32:33;18.20;99.90
29729;DHT22;20055;51.498;11.960;2022-08-21T02:34:59;18.20;99.90
29729;DHT22;20055;51.498;11.960;2022-08-21T02:37:26;18.30;99.90
29729;DHT22;20055;51.498;11.960;2022-08-21T02:39:52;18.30;99.90
29729;DHT22;20055;51.498;11.960;2022-08-21T02:42:18;18.30;99.90
29729;DHT22;20055;51.498;11.960;2022-08-21T02:44:44;18.40;99.90
29729;DHT22;20055;51.498;11.960;2022-08-21T02:47:10;18.40;99.90
29729;DHT22;20055;51.498;11.960;2022-08-21T02:49:37;18.50;99.90
29729;DHT22;20055;51.498;11.960;2022-08-21T02:52:03;18.50;99.90
29729;DHT22;20055;51.498;11.960;2022-08-21T02:54:32;18.50;99.90
29729;DHT22;20055;51.498;11.960;2022-08-21T02:56:58;18.50;99.90
29729;DHT22;20055;51.498;11.960;2022-08-21T02:59:24;18.50;99.90
29729;DHT22;20055;51.498;11.960;2022-08-21T03:01:50;18.40;99.90
29729;DHT22;20055;51.498;11.960;2022-08-21T03:04:17;18.40;99.90
29729;DHT22;20055;51.498;11.960;2022-08-21T03:06:43;18.30;99.90
29729;DHT22;20055;51.498;11.960;2022-08-21T03:09:09;18.30;99.90
29729;DHT22;20055;51.498;11.960;2022-08-21T03:11:35;18.30;99.90
29729;DHT22;20055;51.498;11.960;2022-08-21T03:14:02;18.30;99.90
29729;DHT22;20055;51.498;11.960;2022-08-21T03:16:28;18.40;99.90
29729;DHT22;20055;51.498;11.960;2022-08-21T03:18:54;18.30;99.90
29729;DHT22;20055;51.498;11.960;2022-08-21T03:21:20;18.40;99.90
29729;DHT22;20055;51.498;11.960;2022-08-21T03:23:47;18.30;99.90
29729;DHT22;20055;51.498;11.960;2022-08-21T03:26:13;18.40;99.90
29729;DHT22;20055;51.498;11.960;2022-08-21T03:28:39;18.40;99.90
29729;DHT22;20055;51.498;11.960;2022-08-21T03:31:05;18.40;99.90
29729;DHT22;20055;51.498;11.960;2022-08-21T03:33:32;18.40;99.90
29729;DHT22;20055;51.498;11.960;2022-08-21T03:36:01;18.20;99.90
29729;DHT22;20055;51.498;11.960;2022-08-21T03:38:29;18.20;99.90
29729;DHT22;20055;51.498;11.960;2022-08-21T03:40:56;18.20;99.90
29729;DHT22;20055;51.498;11.960;2022-08-21T03:43:22;18.10;99.90
29729;DHT22;20055;51.498;11.960;2022-08-21T03:45:48;18.10;99.90
29729;DHT22;20055;51.498;11.960;2022-08-21T03:48:15;18.10;99.90
29729;DHT22;20055;51.498;11.960;2022-08-21T03:50:42;18.10;99.90
29729;DHT22;20055;51.498;11.960;2022-08-21T03:53:10;18.10;99.90
29729;DHT22;20055;51.498;11.960;2022-08-21T03:55:37;18.10;99.90
29729;DHT22;20055;51.498;11.960;2022-08-21T03:58:03;18.10;99.90
29729;DHT22;20055;51.498;11.960;2022-08-21T04:00:30;18.10;99.90
29729;DHT22;20055;51.498;11.960;2022-08-21T04:02:56;18.00;99.90
29729;DHT22;20055;51.498;11.960;2022-08-21T04:05:22;18.00;99.90
29729;DHT22;20055;51.498;11.960;2022-08-21T04:07:57;17.90;99.90
29729;DHT22;20055;51.498;11.960;2022-08-21T04:10:24;17.90;99.90
29729;DHT22;20055;51.498;11.960;2022-08-21T04:12:52;17.90;99.90
29729;DHT22;20055;51.498;11.960;2022-08-21T04:15:20;17.90;99.90
29729;DHT22;20055;51.498;11.960;2022-08-21T04:17:46;17.80;99.90
29729;DHT22;20055;51.498;11.960;2022-08-21T04:20:12;17.80;99.90
29729;DHT22;20055;51.498;11.960;2022-08-21T04:22:39;17.70;99.90
29729;DHT22;20055;51.498;11.960;2022-08-21T04:25:06;17.60;99.90
29729;DHT22;20055;51.498;11.960;2022-08-21T04:27:34;17.60;99.90
29729;DHT22;20055;51.498;11.960;2022-08-21T04:30:00;17.60;99.90
29729;DHT22;20055;51.498;11.960;2022-08-21T04:32:27;17.60;99.90
29729;DHT22;20055;51.498;11.960;2022-08-21T04:35:00;17.60;99.90
29729;DHT22;20055;51.498;11.960;2022-08-21T04:37:27;17.60;99.90
29729;DHT22;20055;51.498;11.960;2022-08-21T04:39:54;17.80;99.90
29729;DHT22;20055;51.498;11.960;2022-08-21T04:42:24;17.90;99.90
29729;DHT22;20055;51.498;11.960;2022-08-21T04:44:51;18.10;99.90
29729;DHT22;20055;51.498;11.960;2022-08-21T04:47:18;18.40;99.90
29729;DHT22;20055;51.498;11.960;2022-08-21T04:49:44;18.50;99.90
29729;DHT22;20055;51.498;11.960;2022-08-21T04:52:13;18.60;99.90
29729;DHT22;20055;51.498;11.960;2022-08-21T04:54:42;18.70;99.90
29729;DHT22;20055;51.498;11.960;2022-08-21T04:57:11;18.90;99.90
29729;DHT22;20055;51.498;11.960;2022-08-21T04:59:42;18.80;99.90
29729;DHT22;20055;51.498;11.960;2022-08-21T05:02:09;18.80;99.90
29729;DHT22;20055;51.498;11.960;2022-08-21T05:04:41;18.80;99.90
29729;DHT22;20055;51.498;11.960;2022-08-21T05:07:12;18.90;99.90
29729;DHT22;20055;51.498;11.960;2022-08-21T05:09:40;18.90;99.90
29729;DHT22;20055;51.498;11.960;2022-08-21T05:12:07;19.00;99.90
29729;DHT22;20055;51.498;11.960;2022-08-21T05:14:33;19.10;99.90
29729;DHT22;20055;51.498;11.960;2022-08-21T05:17:00;19.10;99.90
29729;DHT22;20055;51.498;11.960;2022-08-21T05:19:26;19.10;99.90
29729;DHT22;20055;51.498;11.960;2022-08-21T05:21:53;19.10;99.90
29729;DHT22;20055;51.498;11.960;2022-08-21T05:24:20;19.20;99.90
29729;DHT22;20055;51.498;11.960;2022-08-21T05:26:47;19.30;99.90
29729;DHT22;20055;51.498;11.960;2022-08-21T05:29:15;19.30;99.90
29729;DHT22;20055;51.498;11.960;2022-08-21T05:31:41;19.30;99.90
29729;DHT22;20055;51.498;11.960;2022-08-21T05:34:07;19.40;99.90
29729;DHT22;20055;51.498;11.960;2022-08-21T05:36:34;19.30;99.90
29729;DHT22;20055;51.498;11.960;2022-08-21T05:39:00;19.20;99.90
29729;DHT22;20055;51.498;11.960;2022-08-21T05:41:27;19.20;99.90
29729;DHT22;20055;51.498;11.960;2022-08-21T05:43:53;19.10;99.90
29729;DHT22;20055;51.498;11.960;2022-08-21T05:46:19;19.00;99.90
29729;DHT22;20055;51.498;11.960;2022-08-21T05:48:45;19.00;99.90
29729;DHT22;20055;51.498;11.960;2022-08-21T05:51:14;19.00;99.90
29729;DHT22;20055;51.498;11.960;2022-08-21T05:53:42;18.90;99.90
29729;DHT22;20055;51.498;11.960;2022-08-21T05:56:08;19.00;99.90
29729;DHT22;20055;51.498;11.960;2022-08-21T05:58:35;19.10;99.90
29729;DHT22;20055;51.498;11.960;2022-08-21T06:01:03;19.10;99.90
29729;DHT22;20055;51.498;11.960;2022-08-21T06:03:33;19.10;99.90
29729;DHT22;20055;51.498;11.960;2022-08-21T06:06:00;19.10;99.90
29729;DHT22;20055;51.498;11.960;2022-08-21T06:08:27;19.30;99.90
29729;DHT22;20055;51.498;11.960;2022-08-21T06:10:55;19.30;99.90
29729;DHT22;20055;51.498;11.960;2022-08-21T06:13:22;19.40;99.90
29729;DHT22;20055;51.498;11.960;2022-08-21T06:15:49;19.50;99.90
29729;DHT22;20055;51.498;11.960;2022-08-21T06:18:16;19.60;99.90
29729;DHT22;20055;51.498;11.960;2022-08-21T06:20:43;19.60;99.90
29729;DHT22;20055;51.498;11.960;2022-08-21T06:23:10;19.60;99.90
29729;DHT22;20055;51.498;11.960;2022-08-21T06:25:36;19.50;99.90
29729;DHT22;20055;51.498;11.960;2022-08-21T06:28:08;19.60;99.90
29729;DHT22;20055;51.498;11.960;2022-08-21T06:30:37;19.80;99.90
29729;DHT22;20055;51.498;11.960;2022-08-21T06:33:04;20.00;99.90
29729;DHT22;20055;51.498;11.960;2022-08-21T06:35:30;20.20;99.90
29729;DHT22;20055;51.498;11.960;2022-08-21T06:37:57;20.50;99.90
29729;DHT22;20055;51.498;11.960;2022-08-21T06:40:24;20.50;99.90
29729;DHT22;20055;51.498;11.960;2022-08-21T06:43:19;20.40;99.90
29729;DHT22;20055;51.498;11.960;2022-08-21T06:45:49;20.40;99.90
29729;DHT22;20055;51.498;11.960;2022-08-21T06:48:15;20.40;99.90
29729;DHT22;20055;51.498;11.960;2022-08-21T06:50:41;20.40;99.90
29729;DHT22;20055;51.498;11.960;2022-08-21T06:53:10;20.50;99.90
29729;DHT22;20055;51.498;11.960;2022-08-21T06:55:39;20.60;99.90
29729;DHT22;20055;51.498;11.960;2022-08-21T06:58:05;20.30;99.90
29729;DHT22;20055;51.498;11.960;2022-08-21T07:00:32;20.40;99.90
29729;DHT22;20055;51.498;11.960;2022-08-21T07:02:59;20.10;99.90
29729;DHT22;20055;51.498;11.960;2022-08-21T07:05:27;20.10;99.90
29729;DHT22;20055;51.498;11.960;2022-08-21T07:07:53;20.20;99.90
29729;DHT22;20055;51.498;11.960;2022-08-21T07:10:20;20.30;99.90
29729;DHT22;20055;51.498;11.960;2022-08-21T07:12:46;20.40;99.90
29729;DHT22;20055;51.498;11.960;2022-08-21T07:15:12;20.50;99.90
29729;DHT22;20055;51.498;11.960;2022-08-21T07:17:38;20.80;99.90
29729;DHT22;20055;51.498;11.960;2022-08-21T07:20:05;21.10;99.90
29729;DHT22;20055;51.498;11.960;2022-08-21T07:22:33;21.40;99.90
29729;DHT22;20055;51.498;11.960;2022-08-21T07:25:01;21.70;99.90
29729;DHT22;20055;51.498;11.960;2022-08-21T07:27:27;21.90;99.90
29729;DHT22;20055;51.498;11.960;2022-08-21T07:29:53;22.10;99.90
29729;DHT22;20055;51.498;11.960;2022-08-21T07:32:20;22.30;99.90
29729;DHT22;20055;51.498;11.960;2022-08-21T07:34:46;22.40;99.90
29729;DHT22;20055;51.498;11.960;2022-08-21T07:37:15;22.60;99.90
29729;DHT22;20055;51.498;11.960;2022-08-21T07:39:42;22.60;99.90
29729;DHT22;20055;51.498;11.960;2022-08-21T07:42:08;22.60;99.90
29729;DHT22;20055;51.498;11.960;2022-08-21T07:44:36;22.60;99.90
29729;DHT22;20055;51.498;11.960;2022-08-21T07:47:02;22.50;99.90
29729;DHT22;20055;51.498;11.960;2022-08-21T07:49:28;22.60;99.90
29729;DHT22;20055;51.498;11.960;2022-08-21T07:51:55;22.70;99.90
29729;DHT22;20055;51.498;11.960;2022-08-21T07:54:21;22.70;99.90
29729;DHT22;20055;51.498;11.960;2022-08-21T07:56:47;22.70;99.90
29729;DHT22;20055;51.498;11.960;2022-08-21T07:59:13;22.60;99.90
29729;DHT22;20055;51.498;11.960;2022-08-21T08:01:40;22.70;99.90
29729;DHT22;20055;51.498;11.960;2022-08-21T08:04:06;22.80;99.90
29729;DHT22;20055;51.498;11.960;2022-08-21T08:06:32;23.10;99.90
29729;DHT22;20055;51.498;11.960;2022-08-21T08:08:59;23.10;99.90
29729;DHT22;20055;51.498;11.960;2022-08-21T08:11:25;22.70;99.90
29729;DHT22;20055;51.498;11.960;2022-08-21T08:13:52;22.90;99.90
29729;DHT22;20055;51.498;11.960;2022-08-21T08:16:18;23.00;99.90
29729;DHT22;20055;51.498;11.960;2022-08-21T08:18:45;22.90;99.90
29729;DHT22;20055;51.498;11.960;2022-08-21T08:21:12;23.10;99.90
29729;DHT22;20055;51.498;11.960;2022-08-21T08:23:38;23.50;99.90
29729;DHT22;20055;51.498;11.960;2022-08-21T08:26:05;23.70;99.90
29729;DHT22;20055;51.498;11.960;2022-08-21T08:28:33;24.10;99.90
29729;DHT22;20055;51.498;11.960;2022-08-21T08:31:00;24.40;99.90
29729;DHT22;20055;51.498;11.960;2022-08-21T08:33:26;24.40;99.90
29729;DHT22;20055;51.498;11.960;2022-08-21T08:35:53;24.30;99.90
29729;DHT22;20055;51.498;11.960;2022-08-21T08:38:21;23.80;99.90
29729;DHT22;20055;51.498;11.960;2022-08-21T08:41:12;23.70;99.90
29729;DHT22;20055;51.498;11.960;2022-08-21T08:43:45;23.90;99.90
29729;DHT22;20055;51.498;11.960;2022-08-21T08:46:16;23.80;99.90
29729;DHT22;20055;51.498;11.960;2022-08-21T08:48:49;24.10;99.90
29729;DHT22;20055;51.498;11.960;2022-08-21T08:51:25;24.30;99.90
29729;DHT22;20055;51.498;11.960;2022-08-21T08:54:00;24.20;99.90
29729;DHT22;20055;51.498;11.960;2022-08-21T08:56:33;24.30;99.90
29729;DHT22;20055;51.498;11.960;2022-08-21T08:59:09;24.10;99.30
29729;DHT22;20055;51.498;11.960;2022-08-21T09:01:39;24.30;98.20
29729;DHT22;20055;51.498;11.960;2022-08-21T09:04:06;24.70;97.00
29729;DHT22;20055;51.498;11.960;2022-08-21T09:06:53;24.70;95.20
29729;DHT22;20055;51.498;11.960;2022-08-21T09:12:28;24.60;92.20
29729;DHT22;20055;51.498;11.960;2022-08-21T09:15:03;24.60;92.60
29729;DHT22;20055;51.498;11.960;2022-08-21T09:23:23;24.70;92.60
29729;DHT22;20055;51.498;11.960;2022-08-21T09:26:14;24.70;92.70
29729;DHT22;20055;51.498;11.960;2022-08-21T09:28:41;24.40;92.70
29729;DHT22;20055;51.498;11.960;2022-08-21T09:31:15;24.20;93.60
29729;DHT22;20055;51.498;11.960;2022-08-21T09:33:45;24.50;94.20
29729;DHT22;20055;51.498;11.960;2022-08-21T09:36:11;24.70;97.30
29729;DHT22;20055;51.498;11.960;2022-08-21T09:38:38;25.00;97.40
29729;DHT22;20055;51.498;11.960;2022-08-21T09:41:07;25.10;94.00
29729;DHT22;20055;51.498;11.960;2022-08-21T09:43:35;25.10;93.40
29729;DHT22;20055;51.498;11.960;2022-08-21T09:46:07;25.10;92.60
29729;DHT22;20055;51.498;11.960;2022-08-21T09:48:46;25.10;93.10
29729;DHT22;20055;51.498;11.960;2022-08-21T09:51:16;25.10;95.40
29729;DHT22;20055;51.498;11.960;2022-08-21T09:53:48;25.50;93.30
29729;DHT22;20055;51.498;11.960;2022-08-21T09:59:15;25.40;92.80
29729;DHT22;20055;51.498;11.960;2022-08-21T10:01:47;25.40;93.00
29729;DHT22;20055;51.498;11.960;2022-08-21T10:04:14;25.30;93.40
29729;DHT22;20055;51.498;11.960;2022-08-21T10:06:41;25.40;93.30
29729;DHT22;20055;51.498;11.960;2022-08-21T10:09:13;25.30;93.30
29729;DHT22;20055;51.498;11.960;2022-08-21T10:11:54;25.50;92.60
29729;DHT22;20055;51.498;11.960;2022-08-21T10:17:19;25.80;92.60
29729;DHT22;20055;51.498;11.960;2022-08-21T10:20:06;25.40;91.50
29729;DHT22;20055;51.498;11.960;2022-08-21T10:25:30;25.90;90.80
29729;DHT22;20055;51.498;11.960;2022-08-21T10:28:18;25.90;91.10
29729;DHT22;20055;51.498;11.960;2022-08-21T10:30:57;26.30;93.00
29729;DHT22;20055;51.498;11.960;2022-08-21T10:36:20;26.90;92.70
29729;DHT22;20055;51.498;11.960;2022-08-21T10:41:43;27.30;92.60
29729;DHT22;20055;51.498;11.960;2022-08-21T10:47:12;26.70;89.60
29729;DHT22;20055;51.498;11.960;2022-08-21T11:00:10;27.30;86.20
29729;DHT22;20055;51.498;11.960;2022-08-21T11:05:58;26.70;91.00
29729;DHT22;20055;51.498;11.960;2022-08-21T11:08:33;26.20;91.50
29729;DHT22;20055;51.498;11.960;2022-08-21T11:11:08;26.10;90.90
29729;DHT22;20055;51.498;11.960;2022-08-21T11:13:40;26.50;90.40
29729;DHT22;20055;51.498;11.960;2022-08-21T11:18:41;26.50;90.40
29729;DHT22;20055;51.498;11.960;2022-08-21T11:21:42;26.40;92.10
29729;DHT22;20055;51.498;11.960;2022-08-21T11:24:32;26.50;90.60
29729;DHT22;20055;51.498;11.960;2022-08-21T11:29:33;27.10;91.10
29729;DHT22;20055;51.498;11.960;2022-08-21T11:37:21;26.60;88.50
29729;DHT22;20055;51.498;11.960;2022-08-21T11:42:56;27.00;92.00
29729;DHT22;20055;51.498;11.960;2022-08-21T11:45:37;27.30;89.40
29729;DHT22;20055;51.498;11.960;2022-08-21T11:48:24;27.10;90.50
29729;DHT22;20055;51.498;11.960;2022-08-21T11:50:54;27.20;86.20
29729;DHT22;20055;51.498;11.960;2022-08-21T11:53:28;26.80;88.70
29729;DHT22;20055;51.498;11.960;2022-08-21T11:56:03;26.70;87.30
29729;DHT22;20055;51.498;11.960;2022-08-21T11:58:45;27.00;88.70
29729;DHT22;20055;51.498;11.960;2022-08-21T12:01:19;27.20;87.00
29729;DHT22;20055;51.498;11.960;2022-08-21T12:06:47;27.10;88.00
29729;DHT22;20055;51.498;11.960;2022-08-21T12:09:50;26.80;89.40
29729;DHT22;20055;51.498;11.960;2022-08-21T12:12:36;26.90;90.20
29729;DHT22;20055;51.498;11.960;2022-08-21T12:17:55;26.30;87.40
29729;DHT22;20055;51.498;11.960;2022-08-21T12:25:59;26.30;90.50
29729;DHT22;20055;51.498;11.960;2022-08-21T12:28:28;26.80;88.80
29729;DHT22;20055;51.498;11.960;2022-08-21T12:30:56;27.20;88.60
29729;DHT22;20055;51.498;11.960;2022-08-21T12:33:33;27.30;86.70
29729;DHT22;20055;51.498;11.960;2022-08-21T12:36:09;27.50;85.30
29729;DHT22;20055;51.498;11.960;2022-08-21T12:38:50;27.80;83.10
29729;DHT22;20055;51.498;11.960;2022-08-21T12:41:20;27.70;85.20
29729;DHT22;20055;51.498;11.960;2022-08-21T12:44:03;27.70;88.80
29729;DHT22;20055;51.498;11.960;2022-08-21T12:46:36;27.90;84.60
29729;DHT22;20055;51.498;11.960;2022-08-21T12:49:13;27.60;87.40
29729;DHT22;20055;51.498;11.960;2022-08-21T12:52:05;27.50;88.60
29729;DHT22;20055;51.498;11.960;2022-08-21T12:54:42;27.50;86.60
29729;DHT22;20055;51.498;11.960;2022-08-21T12:57:18;27.10;86.90
29729;DHT22;20055;51.498;11.960;2022-08-21T12:59:45;27.00;84.60
29729;DHT22;20055;51.498;11.960;2022-08-21T13:02:21;27.00;83.90
29729;DHT22;20055;51.498;11.960;2022-08-21T13:04:48;27.00;86.60
29729;DHT22;20055;51.498;11.960;2022-08-21T13:07:22;27.20;85.70
29729;DHT22;20055;51.498;11.960;2022-08-21T13:10:05;27.30;89.40
29729;DHT22;20055;51.498;11.960;2022-08-21T13:12:33;27.70;88.20
29729;DHT22;20055;51.498;11.960;2022-08-21T13:15:03;28.10;83.40
29729;DHT22;20055;51.498;11.960;2022-08-21T13:17:35;28.20;85.10
29729;DHT22;20055;51.498;11.960;2022-08-21T13:20:24;28.40;84.50
29729;DHT22;20055;51.498;11.960;2022-08-21T13:22:51;28.40;83.30
29729;DHT22;20055;51.498;11.960;2022-08-21T13:25:20;28.40;85.40
29729;DHT22;20055;51.498;11.960;2022-08-21T13:28:05;28.50;85.00
29729;DHT22;20055;51.498;11.960;2022-08-21T13:30:32;28.70;79.00
29729;DHT22;20055;51.498;11.960;2022-08-21T13:33:01;28.70;77.90
29729;DHT22;20055;51.498;11.960;2022-08-21T13:35:34;28.80;79.00
29729;DHT22;20055;51.498;11.960;2022-08-21T13:38:03;29.10;79.70
29729;DHT22;20055;51.498;11.960;2022-08-21T13:40:49;29.30;77.10
29729;DHT22;20055;51.498;11.960;2022-08-21T13:43:18;29.20;77.60
29729;DHT22;20055;51.498;11.960;2022-08-21T13:45:50;28.80;77.70
29729;DHT22;20055;51.498;11.960;2022-08-21T13:48:17;28.90;75.00
29729;DHT22;20055;51.498;11.960;2022-08-21T13:50:44;29.00;75.90
29729;DHT22;20055;51.498;11.960;2022-08-21T13:53:27;28.70;76.50
29729;DHT22;20055;51.498;11.960;2022-08-21T13:55:53;27.90;78.10
29729;DHT22;20055;51.498;11.960;2022-08-21T13:58:30;27.70;78.60
29729;DHT22;20055;51.498;11.960;2022-08-21T14:00:58;27.20;80.10
29729;DHT22;20055;51.498;11.960;2022-08-21T14:03:42;27.20;80.00
29729;DHT22;20055;51.498;11.960;2022-08-21T14:06:24;27.30;80.20
29729;DHT22;20055;51.498;11.960;2022-08-21T14:08:58;26.90;80.90
29729;DHT22;20055;51.498;11.960;2022-08-21T14:11:26;26.60;81.70
29729;DHT22;20055;51.498;11.960;2022-08-21T14:13:59;26.80;81.80
29729;DHT22;20055;51.498;11.960;2022-08-21T14:16:29;26.90;81.40
29729;DHT22;20055;51.498;11.960;2022-08-21T14:21:35;26.30;82.30
29729;DHT22;20055;51.498;11.960;2022-08-21T14:24:08;26.20;83.40
29729;DHT22;20055;51.498;11.960;2022-08-21T14:26:42;26.00;83.40
29729;DHT22;20055;51.498;11.960;2022-08-21T14:29:12;25.70;84.50
29729;DHT22;20055;51.498;11.960;2022-08-21T14:31:39;25.50;85.60
29729;DHT22;20055;51.498;11.960;2022-08-21T14:34:05;25.50;86.70
29729;DHT22;20055;51.498;11.960;2022-08-21T14:36:31;25.40;86.30
29729;DHT22;20055;51.498;11.960;2022-08-21T14:38:57;25.30;86.50
29729;DHT22;20055;51.498;11.960;2022-08-21T14:41:25;25.40;86.40
29729;DHT22;20055;51.498;11.960;2022-08-21T14:43:54;25.40;87.70
29729;DHT22;20055;51.498;11.960;2022-08-21T14:46:24;25.40;86.30
29729;DHT22;20055;51.498;11.960;2022-08-21T14:48:50;25.30;87.60
29729;DHT22;20055;51.498;11.960;2022-08-21T14:51:17;25.40;87.10
29729;DHT22;20055;51.498;11.960;2022-08-21T14:53:43;25.30;87.10
29729;DHT22;20055;51.498;11.960;2022-08-21T14:56:11;25.40;86.70
29729;DHT22;20055;51.498;11.960;2022-08-21T14:58:42;25.30;86.80
29729;DHT22;20055;51.498;11.960;2022-08-21T15:01:11;25.50;86.60
29729;DHT22;20055;51.498;11.960;2022-08-21T15:03:38;25.30;87.10
29729;DHT22;20055;51.498;11.960;2022-08-21T15:06:07;25.30;88.10
29729;DHT22;20055;51.498;11.960;2022-08-21T15:08:33;25.20;87.40
29729;DHT22;20055;51.498;11.960;2022-08-21T15:11:01;25.10;87.80
29729;DHT22;20055;51.498;11.960;2022-08-21T15:13:28;25.00;87.60
29729;DHT22;20055;51.498;11.960;2022-08-21T15:15:54;24.80;87.90
29729;DHT22;20055;51.498;11.960;2022-08-21T15:18:24;24.90;88.20
29729;DHT22;20055;51.498;11.960;2022-08-21T15:20:50;24.90;87.70
29729;DHT22;20055;51.498;11.960;2022-08-21T15:23:17;25.00;87.70
29729;DHT22;20055;51.498;11.960;2022-08-21T15:25:45;25.10;87.10
29729;DHT22;20055;51.498;11.960;2022-08-21T15:28:13;25.30;87.20
29729;DHT22;20055;51.498;11.960;2022-08-21T15:30:41;25.30;86.70
29729;DHT22;20055;51.498;11.960;2022-08-21T15:33:09;25.30;86.60
29729;DHT22;20055;51.498;11.960;2022-08-21T15:35:35;25.40;87.20
29729;DHT22;20055;51.498;11.960;2022-08-21T15:38:02;25.40;87.80
29729;DHT22;20055;51.498;11.960;2022-08-21T15:40:29;25.20;86.80
29729;DHT22;20055;51.498;11.960;2022-08-21T15:42:59;25.10;87.10
29729;DHT22;20055;51.498;11.960;2022-08-21T15:45:26;25.20;87.60
29729;DHT22;20055;51.498;11.960;2022-08-21T15:47:53;25.30;86.50
29729;DHT22;20055;51.498;11.960;2022-08-21T15:50:21;25.30;86.50
29729;DHT22;20055;51.498;11.960;2022-08-21T15:52:47;25.30;86.50
29729;DHT22;20055;51.498;11.960;2022-08-21T15:55:14;25.40;86.30
29729;DHT22;20055;51.498;11.960;2022-08-21T15:57:45;25.40;86.00
29729;DHT22;20055;51.498;11.960;2022-08-21T16:00:18;25.40;86.10
29729;DHT22;20055;51.498;11.960;2022-08-21T16:02:53;25.40;86.80
29729;DHT22;20055;51.498;11.960;2022-08-21T16:05:21;25.60;87.10
29729;DHT22;20055;51.498;11.960;2022-08-21T16:07:48;26.10;85.10
29729;DHT22;20055;51.498;11.960;2022-08-21T16:10:18;26.40;83.40
29729;DHT22;20055;51.498;11.960;2022-08-21T16:12:50;26.50;83.80
29729;DHT22;20055;51.498;11.960;2022-08-21T16:15:18;26.40;84.20
29729;DHT22;20055;51.498;11.960;2022-08-21T16:17:46;26.60;83.20
29729;DHT22;20055;51.498;11.960;2022-08-21T16:20:19;26.70;84.00
29729;DHT22;20055;51.498;11.960;2022-08-21T16:22:46;27.00;82.80
29729;DHT22;20055;51.498;11.960;2022-08-21T16:25:14;26.90;84.10
29729;DHT22;20055;51.498;11.960;2022-08-21T16:27:41;26.80;82.30
29729;DHT22;20055;51.498;11.960;2022-08-21T16:30:09;26.80;83.40
29729;DHT22;20055;51.498;11.960;2022-08-21T16:32:36;26.70;84.90
29729;DHT22;20055;51.498;11.960;2022-08-21T16:35:03;26.50;84.20
29729;DHT22;20055;51.498;11.960;2022-08-21T16:37:30;26.50;83.00